Time;durP1;ratioP1;P1;durP2;ratioP2;P2;SDS_P1;SDS_P2;PMS_P1;PMS_P2;Temp;Humidity;BMP_temperature;BMP_pressure;BME280_temperature;BME280_humidity;BME280_pressure;Samples;Min_cycle;Max_cycle;Signal;HPM_P1;HPM_P2
2022/11/26 00:00:49;;;;;;;;;;;;;;;;;;5068567;28;19923;-63
2022/11/26 00:03:15;;;;;;;;;;;;;;;;;;5053449;28;19925;-63
2022/11/26 00:05:41;;;;;;;;;;;;;;;;;;5053278;28;19927;-64
2022/11/26 00:08:07;;;;;;;;;;;;;;;;;;5065916;28;19913;-64
2022/11/26 00:10:33;;;;;;;;;;;;;;;;;;5071573;28;19957;-63
2022/11/26 00:13:02;;;;;;;;;;;;;;;;;;5071556;28;19947;-64
2022/11/26 00:15:28;;;;;;;;;;;;;;;;;;5058410;28;19938;-63
2022/11/26 00:17:57;;;;;;;;;;;;;;;;;;5071225;28;19999;-64
2022/11/26 00:20:23;;;;;;;;;;;;;;;;;;5063078;28;19913;-64
2022/11/26 00:22:49;;;;;;;;;;;;;;;;;;5056582;28;20296;-63
2022/11/26 00:25:21;;;;;;;;;;;;;;;;;;5071204;28;19954;-64
2022/11/26 00:27:47;;;;;;;;;;;;;;;;;;5063681;28;19909;-64
2022/11/26 00:30:13;;;;;;;;;;;;;;;;;;5070837;28;20376;-63
2022/11/26 00:32:39;;;;;;;;;;;;;;;;;;5054102;28;19916;-63
2022/11/26 00:35:05;;;;;;;;;;;;;;;;;;5057238;28;20361;-63
2022/11/26 00:37:34;;;;;;;;;;;;;;;;;;5072073;28;19920;-64
2022/11/26 00:40:00;;;;;;;;;;;;;;;;;;5052926;28;20365;-63
2022/11/26 00:42:26;;;;;;;;;;;;;;;;;;5068273;28;19958;-64
2022/11/26 00:44:52;;;;;;;;;;;;;;;;;;5071270;28;19962;-63
2022/11/26 00:47:18;;;;;;;;;;;;;;;;;;5055099;28;19921;-63
2022/11/26 00:49:44;;;;;;;;;;;;;;;;;;5062330;28;20103;-63
2022/11/26 00:52:10;;;;;;;;;;;;;;;;;;5071946;28;19913;-63
2022/11/26 00:54:36;;;;;;;;;;;;;;;;;;5072226;28;19962;-64
2022/11/26 00:57:02;;;;;;;;;;;;;;;;;;5069184;28;20010;-63
2022/11/26 00:59:28;;;;;;;;;;;;;;;;;;5070098;28;19975;-64
2022/11/26 01:01:54;;;;;;;;;;;;;;;;;;5055697;28;20428;-64
2022/11/26 01:04:20;;;;;;;;;;;;;;;;;;5052290;28;19921;-64
2022/11/26 01:06:46;;;;;;;;;;;;;;;;;;5051721;28;20401;-63
2022/11/26 01:09:12;;;;;;;;;;;;;;;;;;5052143;28;19913;-63
2022/11/26 01:11:38;;;;;;;;;;;;;;;;;;5061953;28;20450;-63
2022/11/26 01:14:07;;;;;;;;;;;;;;;;;;5059583;28;19919;-63
2022/11/26 01:16:33;;;;;;;;;;;;;;;;;;5064251;28;20518;-63
2022/11/26 01:19:01;;;;;;;;;;;;;;;;;;5070225;28;19917;-63
2022/11/26 01:21:27;;;;;;;;;;;;;;;;;;5060959;28;19959;-64
2022/11/26 01:23:53;;;;;;;;;;;;;;;;;;5061791;28;19939;-62
2022/11/26 01:26:19;;;;;;;;;;;;;;;;;;5063831;28;19913;-63
2022/11/26 01:28:45;;;;;;;;;;;;;;;;;;5071717;28;19913;-63
2022/11/26 01:31:11;;;;;;;;;;;;;;;;;;5063447;28;19959;-63
2022/11/26 01:33:37;;;;;;;;;;;;;;;;;;5053224;28;19970;-64
2022/11/26 01:36:05;;;;;;;;;;;;;;;;;;5051879;28;19956;-62
2022/11/26 01:38:31;;;;;;;;;;;;;;;;;;5051475;28;19920;-62
2022/11/26 01:40:57;;;;;;;;;;;;;;;;;;5060088;28;19909;-63
2022/11/26 01:43:23;;;;;;;;;;;;;;;;;;5050483;28;19924;-63
2022/11/26 01:45:49;;;;;;;;;;;;;;;;;;5056543;28;19912;-63
2022/11/26 01:48:15;;;;;;;;;;;;;;;;;;5053198;28;19919;-63
2022/11/26 01:50:41;;;;;;;;;;;;;;;;;;5052885;28;19913;-64
2022/11/26 01:53:07;;;;;;;;;;;;;;;;;;5051804;28;19913;-63
2022/11/26 01:55:33;;;;;;;;;;;;;;;;;;5051833;28;20550;-61
2022/11/26 01:57:59;;;;;;;;;;;;;;;;;;5063939;28;20010;-63
2022/11/26 02:00:25;;;;;;;;;;;;;;;;;;5051533;28;20444;-63
2022/11/26 02:02:51;;;;;;;;;;;;;;;;;;5050358;28;19909;-63
2022/11/26 02:05:17;;;;;;;;;;;;;;;;;;5067046;28;19947;-64
2022/11/26 02:07:43;;;;;;;;;;;;;;;;;;5071697;28;19915;-64
2022/11/26 02:10:12;;;;;;;;;;;;;;;;;;5071576;28;19920;-62
2022/11/26 02:12:38;;;;;;;;;;;;;;;;;;5071610;28;19908;-63
2022/11/26 02:15:04;;;;;;;;;;;;;;;;;;5062362;28;19962;-64
2022/11/26 02:17:30;;;;;;;;;;;;;;;;;;5051792;28;19920;-63
2022/11/26 02:19:56;;;;;;;;;;;;;;;;;;5055340;28;19909;-64
2022/11/26 02:22:22;;;;;;;;;;;;;;;;;;5055369;28;19909;-63
2022/11/26 02:24:48;;;;;;;;;;;;;;;;;;5055333;28;19928;-63
2022/11/26 02:27:14;;;;;;;;;;;;;;;;;;5055374;28;19924;-63
2022/11/26 02:29:40;;;;;;;;;;;;;;;;;;5055202;28;19909;-64
2022/11/26 02:32:06;;;;;;;;;;;;;;;;;;5064560;28;19939;-64
2022/11/26 02:34:32;;;;;;;;;;;;;;;;;;5056633;28;19913;-63
2022/11/26 02:36:59;;;;;;;;;;;;;;;;;;5074854;28;20385;-62
2022/11/26 02:39:25;;;;;;;;;;;;;;;;;;5072081;28;19919;-63
2022/11/26 02:41:51;;;;;;;;;;;;;;;;;;5058378;28;19912;-63
2022/11/26 02:44:17;;;;;;;;;;;;;;;;;;5056059;28;19921;-63
2022/11/26 02:46:43;;;;;;;;;;;;;;;;;;5056636;28;19913;-63
2022/11/26 02:49:09;;;;;;;;;;;;;;;;;;5064251;28;20319;-63
2022/11/26 02:51:41;;;;;;;;;;;;;;;;;;5072777;28;19912;-64
2022/11/26 02:54:10;;;;;;;;;;;;;;;;;;5074052;28;19999;-63
2022/11/26 02:56:37;;;;;;;;;;;;;;;;;;5068192;28;19919;-63
2022/11/26 02:59:04;;;;;;;;;;;;;;;;;;5060850;28;19913;-62
2022/11/26 03:01:30;;;;;;;;;;;;;;;;;;5060378;28;19920;-63
2022/11/26 03:03:57;;;;;;;;;;;;;;;;;;5054538;28;19917;-63
2022/11/26 03:06:23;;;;;;;;;;;;;;;;;;5070746;28;19916;-63
2022/11/26 03:08:49;;;;;;;;;;;;;;;;;;5074343;28;20046;-63
2022/11/26 03:11:15;;;;;;;;;;;;;;;;;;5074547;28;19959;-63
2022/11/26 03:13:41;;;;;;;;;;;;;;;;;;5068622;28;19917;-63
2022/11/26 03:16:07;;;;;;;;;;;;;;;;;;5062635;28;19913;-63
2022/11/26 03:18:33;;;;;;;;;;;;;;;;;;5072785;28;19938;-63
2022/11/26 03:20:59;;;;;;;;;;;;;;;;;;5063447;28;20439;-60
2022/11/26 03:23:25;;;;;;;;;;;;;;;;;;5063657;28;20353;-63
2022/11/26 03:25:51;;;;;;;;;;;;;;;;;;5054306;28;19909;-63
2022/11/26 03:28:17;;;;;;;;;;;;;;;;;;5066446;28;19913;-63
2022/11/26 03:30:43;;;;;;;;;;;;;;;;;;5066759;28;19912;-63
2022/11/26 03:33:09;;;;;;;;;;;;;;;;;;5073773;28;19912;-62
2022/11/26 03:35:35;;;;;;;;;;;;;;;;;;5068830;28;20011;-63
2022/11/26 03:38:01;;;;;;;;;;;;;;;;;;5060009;28;19982;-63
2022/11/26 03:40:30;;;;;;;;;;;;;;;;;;5053781;28;20412;-63
2022/11/26 03:42:56;;;;;;;;;;;;;;;;;;5067568;28;20426;-63
2022/11/26 03:45:22;;;;;;;;;;;;;;;;;;5062437;28;19948;-63
2022/11/26 03:47:48;;;;;;;;;;;;;;;;;;5059083;28;19928;-63
2022/11/26 03:50:14;;;;;;;;;;;;;;;;;;5054008;28;19913;-62
2022/11/26 03:52:40;;;;;;;;;;;;;;;;;;5054807;28;19917;-63
2022/11/26 03:55:06;;;;;;;;;;;;;;;;;;5067276;28;20324;-63
2022/11/26 03:57:32;;;;;;;;;;;;;;;;;;5073764;28;19992;-62
2022/11/26 03:59:58;;;;;;;;;;;;;;;;;;5071865;28;19908;-61
2022/11/26 04:02:24;;;;;;;;;;;;;;;;;;5067360;28;19935;-63
2022/11/26 04:04:50;;;;;;;;;;;;;;;;;;5060416;28;19917;-63
2022/11/26 04:07:16;;;;;;;;;;;;;;;;;;5053621;28;19913;-63
2022/11/26 04:09:42;;;;;;;;;;;;;;;;;;5054264;28;19967;-63
2022/11/26 04:12:08;;;;;;;;;;;;;;;;;;5060893;28;20003;-63
2022/11/26 04:14:34;;;;;;;;;;;;;;;;;;5065190;28;19913;-63
2022/11/26 04:17:00;;;;;;;;;;;;;;;;;;5058508;28;19913;-63
2022/11/26 04:19:26;;;;;;;;;;;;;;;;;;5052957;28;19964;-63
2022/11/26 04:21:52;;;;;;;;;;;;;;;;;;5053163;28;19936;-62
2022/11/26 04:24:18;;;;;;;;;;;;;;;;;;5052783;28;19994;-63
2022/11/26 04:26:44;;;;;;;;;;;;;;;;;;5053137;28;19916;-62
2022/11/26 04:29:10;;;;;;;;;;;;;;;;;;5053203;28;20316;-61
2022/11/26 04:31:36;;;;;;;;;;;;;;;;;;5053026;28;20353;-62
2022/11/26 04:34:02;;;;;;;;;;;;;;;;;;5053049;28;19908;-62
2022/11/26 04:36:28;;;;;;;;;;;;;;;;;;5069403;28;19927;-62
2022/11/26 04:38:54;;;;;;;;;;;;;;;;;;5054263;28;20309;-62
2022/11/26 04:41:20;;;;;;;;;;;;;;;;;;5041598;28;19913;-62
2022/11/26 04:43:49;;;;;;;;;;;;;;;;;;5054414;28;20449;-62
2022/11/26 04:46:15;;;;;;;;;;;;;;;;;;5061381;28;19913;-63
2022/11/26 04:48:41;;;;;;;;;;;;;;;;;;5056363;28;19919;-62
2022/11/26 04:51:07;;;;;;;;;;;;;;;;;;5072229;28;19955;-63
2022/11/26 04:53:33;;;;;;;;;;;;;;;;;;5072399;28;19915;-62
2022/11/26 04:55:59;;;;;;;;;;;;;;;;;;5065565;28;19913;-63
2022/11/26 04:58:25;;;;;;;;;;;;;;;;;;5052739;28;20365;-63
2022/11/26 05:00:51;;;;;;;;;;;;;;;;;;5071571;28;19908;-62
2022/11/26 05:03:17;;;;;;;;;;;;;;;;;;5072425;28;19979;-63
2022/11/26 05:05:43;;;;;;;;;;;;;;;;;;5072208;28;20484;-62
2022/11/26 05:08:09;;;;;;;;;;;;;;;;;;5071984;28;19908;-63
2022/11/26 05:10:35;;;;;;;;;;;;;;;;;;5072303;28;20380;-63
2022/11/26 05:13:01;;;;;;;;;;;;;;;;;;5072372;28;20438;-63
2022/11/26 05:15:27;;;;;;;;;;;;;;;;;;5072255;28;19952;-63
2022/11/26 05:17:53;;;;;;;;;;;;;;;;;;5072317;28;20361;-62
2022/11/26 05:20:19;;;;;;;;;;;;;;;;;;5072013;28;19920;-61
2022/11/26 05:22:45;;;;;;;;;;;;;;;;;;5072182;28;19908;-62
2022/11/26 05:25:11;;;;;;;;;;;;;;;;;;5072207;28;19909;-62
2022/11/26 05:27:37;;;;;;;;;;;;;;;;;;5070811;28;20333;-63
2022/11/26 05:30:03;;;;;;;;;;;;;;;;;;5071929;28;20361;-62
2022/11/26 05:32:29;;;;;;;;;;;;;;;;;;5070763;28;19924;-63
2022/11/26 05:34:55;;;;;;;;;;;;;;;;;;5072333;28;19954;-63
2022/11/26 05:37:21;;;;;;;;;;;;;;;;;;5072212;28;20031;-63
2022/11/26 05:39:47;;;;;;;;;;;;;;;;;;5072082;28;20424;-64
2022/11/26 05:42:16;;;;;;;;;;;;;;;;;;5072278;28;19909;-64
2022/11/26 05:44:42;;;;;;;;;;;;;;;;;;5071965;28;19912;-64
2022/11/26 05:47:08;;;;;;;;;;;;;;;;;;5072032;28;20289;-64
2022/11/26 05:49:34;;;;;;;;;;;;;;;;;;5071905;28;20599;-64
2022/11/26 05:52:00;;;;;;;;;;;;;;;;;;5070791;28;19919;-64
2022/11/26 05:54:26;;;;;;;;;;;;;;;;;;5076180;28;20202;-64
2022/11/26 05:56:52;;;;;;;;;;;;;;;;;;5076044;28;19909;-64
2022/11/26 05:59:18;;;;;;;;;;;;;;;;;;5075886;28;19999;-63
2022/11/26 06:01:44;;;;;;;;;;;;;;;;;;5098508;22;19998;-53
2022/11/26 06:04:10;;;;;;;;;;;;;;;;;;5075715;28;19971;-53
2022/11/26 06:06:36;;;;;;;;;;;;;;;;;;5075741;28;20379;-53
2022/11/26 06:09:05;;;;;;;;;;;;;;;;;;5075603;28;19941;-53
2022/11/26 06:11:31;;;;;;;;;;;;;;;;;;5085174;28;19916;-52
2022/11/26 06:13:57;;;;;;;;;;;;;;;;;;5095886;28;19912;-53
2022/11/26 06:16:23;;;;;;;;;;;;;;;;;;5095818;28;19908;-53
2022/11/26 06:18:49;;;;;;;;;;;;;;;;;;5095722;28;19908;-53
2022/11/26 06:21:15;;;;;;;;;;;;;;;;;;5077466;28;19995;-53
2022/11/26 06:23:41;;;;;;;;;;;;;;;;;;5095712;28;19912;-54
2022/11/26 06:26:07;;;;;;;;;;;;;;;;;;5077586;28;19962;-54
2022/11/26 06:28:36;;;;;;;;;;;;;;;;;;5095540;28;19914;-53
2022/11/26 06:31:02;;;;;;;;;;;;;;;;;;5095413;28;20390;-53
2022/11/26 06:33:28;;;;;;;;;;;;;;;;;;5095590;28;19908;-53
2022/11/26 06:35:54;;;;;;;;;;;;;;;;;;5095691;28;19915;-53
2022/11/26 06:38:20;;;;;;;;;;;;;;;;;;5095390;28;19908;-53
2022/11/26 06:40:46;;;;;;;;;;;;;;;;;;5095531;28;19912;-55
2022/11/26 06:43:12;;;;;;;;;;;;;;;;;;5095329;28;20013;-54
2022/11/26 06:45:41;;;;;;;;;;;;;;;;;;5095314;28;20368;-53
2022/11/26 06:48:07;;;;;;;;;;;;;;;;;;5095382;28;19919;-53
2022/11/26 06:50:33;;;;;;;;;;;;;;;;;;5094858;28;19995;-55
2022/11/26 06:52:59;;;;;;;;;;;;;;;;;;5094456;28;20301;-53
2022/11/26 06:55:25;;;;;;;;;;;;;;;;;;5095242;28;19970;-53
2022/11/26 06:57:54;;;;;;;;;;;;;;;;;;5086733;28;19912;-53
2022/11/26 07:00:20;;;;;;;;;;;;;;;;;;5094875;28;20284;-53
2022/11/26 07:02:46;;;;;;;;;;;;;;;;;;5094888;28;19920;-53
2022/11/26 07:05:12;;;;;;;;;;;;;;;;;;5094203;28;20283;-53
2022/11/26 07:07:38;;;;;;;;;;;;;;;;;;5094937;28;19915;-53
2022/11/26 07:10:04;;;;;;;;;;;;;;;;;;5094799;28;19970;-53
2022/11/26 07:12:30;;;;;;;;;;;;;;;;;;5094761;28;20376;-53
2022/11/26 07:14:56;;;;;;;;;;;;;;;;;;5095179;28;19912;-54
2022/11/26 07:17:22;;;;;;;;;;;;;;;;;;5076507;28;19908;-56
2022/11/26 07:19:51;;;;;;;;;;;;;;;;;;5094480;28;19954;-53
2022/11/26 07:22:17;;;;;;;;;;;;;;;;;;5094683;28;19908;-53
2022/11/26 07:30:13;;;;;;;;;;;;;;;;;;5093111;28;19916;-54
2022/11/26 07:32:39;;;;;;;;;;;;;;;;;;5094490;28;19908;-55
2022/11/26 07:35:05;;;;;;;;;;;;;;;;;;5094449;28;19915;-53
2022/11/26 07:37:31;;;;;;;;;;;;;;;;;;5076231;28;19908;-53
2022/11/26 07:39:57;;;;;;;;;;;;;;;;;;5093875;28;20365;-53
2022/11/26 07:42:23;;;;;;;;;;;;;;;;;;5093995;28;20317;-54
2022/11/26 07:44:49;;;;;;;;;;;;;;;;;;5094130;28;20372;-55
2022/11/26 07:47:15;;;;;;;;;;;;;;;;;;5093854;28;19908;-56
2022/11/26 07:49:41;;;;;;;;;;;;;;;;;;5094110;28;19908;-56
2022/11/26 07:52:07;;;;;;;;;;;;;;;;;;5075900;28;19916;-54
2022/11/26 07:54:36;;;;;;;;;;;;;;;;;;5093979;28;19908;-54
2022/11/26 07:57:02;;;;;;;;;;;;;;;;;;5094050;28;19908;-53
2022/11/26 07:59:28;;;;;;;;;;;;;;;;;;5093985;28;19995;-54
2022/11/26 08:01:54;;;;;;;;;;;;;;;;;;5075662;28;20195;-54
2022/11/26 08:04:20;;;;;;;;;;;;;;;;;;5092662;28;20356;-54
2022/11/26 08:06:46;;;;;;;;;;;;;;;;;;5092264;28;19912;-53
2022/11/26 08:09:12;;;;;;;;;;;;;;;;;;5092934;28;20157;-53
2022/11/26 08:11:38;;;;;;;;;;;;;;;;;;5093605;28;19912;-53
2022/11/26 08:14:04;;;;;;;;;;;;;;;;;;5093710;28;19908;-55
2022/11/26 08:16:30;;;;;;;;;;;;;;;;;;5092447;28;20041;-54
2022/11/26 08:19:01;;;;;;;;;;;5.80;99.90;;;;;;5093407;28;20401;-51
2022/11/26 08:21:27;;;;;;;;;;;5.80;99.90;;;;;;5093377;28;19968;-50
2022/11/26 08:23:53;;;;;;;;;;;5.90;99.90;;;;;;5093411;28;19912;-51
2022/11/26 08:26:19;;;;;;;;;;;;;;;;;;5093368;28;20376;-52
2022/11/26 08:28:45;;;;;;;;;;;;;;;;;;5093266;28;19979;-51
2022/11/26 08:31:11;;;;;;;;;;;;;;;;;;5093243;28;20001;-52
2022/11/26 08:33:37;;;;;;;;;;;;;;;;;;5093326;28;19922;-51
2022/11/26 08:36:03;;;;;;;;;;;;;;;;;;5093067;28;19938;-52
2022/11/26 08:38:34;;;;;;;;;;;;;;;;;;5092925;28;19908;-52
2022/11/26 08:41:06;;;;;;;;;;;;;;;;;;5093221;28;19949;-52
2022/11/26 08:43:32;;;;;;;;;;;;;;;;;;5092922;28;20305;-53
2022/11/26 08:45:58;;;;;;;;;;;;;;;;;;5074815;28;19908;-52
2022/11/26 08:48:24;;;;;;;;;;;;;;;;;;5074612;28;19912;-52
2022/11/26 08:50:50;;;;;;;;;;;;;;;;;;5092874;28;19961;-53
2022/11/26 08:53:16;;;;;;;;;;;;;;;;;;5092944;28;20368;-52
2022/11/26 08:55:42;;;;;;;;;;;;;;;;;;5093063;28;19938;-51
2022/11/26 08:58:08;;;;;;;;;;;;;;;;;;5092672;28;19915;-54
2022/11/26 09:00:34;;;;;;;;;;;;;;;;;;5092637;28;19908;-52
2022/11/26 09:03:00;;;;;;;;;;;5.90;99.90;;;;;;5092453;28;20320;-51
2022/11/26 09:05:25;;;;;;;;;;;;;;;;;;5092717;28;20287;-52
2022/11/26 09:07:52;;;;;;;;;;;;;;;;;;5074498;28;19908;-52
2022/11/26 09:10:18;;;;;;;;;;;;;;;;;;5090897;28;19914;-53
2022/11/26 09:12:44;;;;;;;;;;;;;;;;;;5092689;28;19962;-52
2022/11/26 09:15:10;;;;;;;;;;;;;;;;;;5092565;28;19908;-51
2022/11/26 09:17:36;;;;;;;;;;;;;;;;;;5092399;28;19961;-52
2022/11/26 09:20:02;;;;;;;;;;;;;;;;;;5074043;28;20315;-52
2022/11/26 09:22:29;;;;;;;;;;;;;;;;;;5091969;28;19912;-53
2022/11/26 09:24:54;;;;;;;;;;;;;;;;;;5092367;28;20007;-51
2022/11/26 09:27:20;;;;;;;;;;;;;;;;;;5092011;28;19947;-53
2022/11/26 09:29:46;;;;;;;;;;;;;;;;;;5092237;28;19954;-52
2022/11/26 09:32:12;;;;;;;;;;;;;;;;;;5092221;28;19923;-52
2022/11/26 09:34:39;;;;;;;;;;;;;;;;;;5091155;28;19912;-53
2022/11/26 09:37:05;;;;;;;;;;;;;;;;;;5091955;28;19915;-52
2022/11/26 09:39:31;;;;;;;;;;;;;;;;;;5073738;28;20434;-51
2022/11/26 09:41:57;;;;;;;;;;;;;;;;;;5092250;28;20272;-52
2022/11/26 09:44:23;;;;;;;;;;;;;;;;;;5092141;28;19918;-52
2022/11/26 09:46:49;;;;;;;;;;;;;;;;;;5092087;28;19922;-52
2022/11/26 09:49:15;;;;;;;;;;;;;;;;;;5091997;28;20372;-51
2022/11/26 09:51:41;;;;;;;;;;;;;;;;;;5092134;28;19952;-52
2022/11/26 09:54:10;;;;;;;;;;;;;;;;;;5092017;28;19942;-53
2022/11/26 09:56:36;;;;;;;;;;;;;;;;;;5092038;28;20330;-54
2022/11/26 10:01:50;;;;;;;;;;;;;;;;;;5091274;28;19918;-52
2022/11/26 10:04:16;;;;;;;;;;;;;;;;;;5091913;28;19924;-52
2022/11/26 10:06:42;;;;;;;;;;;;;;;;;;5091971;28;19915;-55
2022/11/26 10:11:52;;;;;;;;;;;;;;;;;;5083398;28;19915;-53
2022/11/26 10:14:18;;;;;;;;;;;;;;;;;;5073827;28;19930;-52
2022/11/26 10:16:44;;;;;;;;;;;;;;;;;;5091847;28;19912;-53
2022/11/26 10:19:10;;;;;;;;;;;;;;;;;;5091819;28;19995;-52
2022/11/26 10:21:39;;;;;;;;;;;;;;;;;;5073723;28;19948;-52
2022/11/26 10:24:05;;;;;;;;;;;;;;;;;;5091700;28;19919;-53
2022/11/26 10:26:31;;;;;;;;;;;;;;;;;;5091725;28;19999;-54
2022/11/26 10:28:57;;;;;;;;;;;;;;;;;;5091795;28;19912;-53
2022/11/26 10:31:23;;;;;;;;;;;;;;;;;;5091735;28;19909;-52
2022/11/26 10:33:49;;;;;;;;;;;;;;;;;;5091800;28;19908;-52
2022/11/26 10:36:15;;;;;;;;;;;;;;;;;;5091773;28;19908;-53
2022/11/26 10:38:41;;;;;;;;;;;;;;;;;;5091958;28;19908;-53
2022/11/26 10:41:07;;;;;;;;;;;;;;;;;;5095335;28;19919;-54
2022/11/26 10:43:33;;;;;;;;;;;;;;;;;;5094506;28;20031;-52
2022/11/26 10:46:00;;;;;;;;;;;;;;;;;;5077215;28;19908;-52
2022/11/26 10:53:55;;;;;;;;;;;;;;;;;;5086840;28;20437;-53
2022/11/26 10:56:21;;;;;;;;;;;;;;;;;;5095168;28;19931;-56
2022/11/26 10:58:47;;;;;;;;;;;;;;;;;;5094974;28;19964;-52
2022/11/26 11:01:14;;;;;;;;;;;;;;;;;;5095144;28;19947;-55
2022/11/26 11:03:40;;;;;;;;;;;;;;;;;;5076786;28;20000;-53
2022/11/26 11:06:18;;;;;;;;;;;;;;;;;;5094432;28;20205;-52
2022/11/26 11:08:44;;;;;;;;;;;;;;;;;;5094900;28;19987;-52
2022/11/26 11:11:10;;;;;;;;;;;;;;;;;;5094877;28;19908;-51
2022/11/26 11:13:36;;;;;;;;;;;;;;;;;;5094838;28;19953;-52
2022/11/26 11:16:02;;;;;;;;;;;;;;;;;;5094805;28;20322;-53
2022/11/26 11:18:29;;;;;;;;;;;;;;;;;;5094528;28;19915;-53
2022/11/26 11:20:55;;;;;;;;;;;;;;;;;;5094603;28;19908;-54
2022/11/26 11:23:23;;;;;;;;;;;;;;;;;;5094375;28;19912;-54
2022/11/26 11:25:49;;;;;;;;;;;;;;;;;;5093971;28;19909;-52
2022/11/26 11:28:18;;;;;;;;;;;;;;;;;;5094432;28;20223;-52
2022/11/26 11:30:45;;;;;;;;;;;;;;;;;;5094283;28;19948;-52
2022/11/26 11:33:11;;;;;;;;;;;;;;;;;;5094631;28;20395;-52
2022/11/26 11:35:37;;;;;;;;;;;;;;;;;;5093751;28;20324;-53
2022/11/26 11:38:03;;;;;;;;;;;;;;;;;;5094247;28;20364;-52
2022/11/26 11:40:29;;;;;;;;;;;;;;;;;;5094216;28;19912;-53
2022/11/26 11:42:55;;;;;;;;;;;;;;;;;;5094478;28;20276;-53
2022/11/26 11:45:22;;;;;;;;;;;;;;;;;;5094049;28;19912;-54
2022/11/26 11:47:48;;;;;;;;;;;;;;;;;;5093278;28;20356;-54
2022/11/26 11:50:14;;;;;;;;;;;;;;;;;;5091557;28;19912;-51
2022/11/26 11:52:40;;;;;;;;;;;;;;;;;;5054928;28;19991;-52
2022/11/26 11:55:06;;;;;;;;;;;;;;;;;;5075065;28;19916;-52
2022/11/26 11:57:32;;;;;;;;;;;;;;;;;;5093286;28;19918;-53
2022/11/26 12:00:59;;;;;;;;;;;;;;;;;;5093111;28;19912;-54
2022/11/26 12:02:53;;;;;;;;;;;;;;;;;;5065715;28;20597;-53
2022/11/26 12:05:26;;;;;;;;;;;;;;;;;;5093448;28;19934;-52
2022/11/26 12:07:52;;;;;;;;;;;;;;;;;;5093246;28;19919;-52
2022/11/26 12:10:18;;;;;;;;;;;;;;;;;;5093376;28;19912;-53
2022/11/26 12:12:44;;;;;;;;;;;;;;;;;;5093195;28;19916;-52
2022/11/26 12:17:55;;;;;;;;;;;;;;;;;;5091118;28;20292;-52
2022/11/26 12:20:21;;;;;;;;;;;;;;;;;;5092666;28;19912;-53
2022/11/26 12:22:47;;;;;;;;;;;;;;;;;;5093929;28;19931;-53
2022/11/26 12:25:13;;;;;;;;;;;;;;;;;;5093013;28;20361;-55
2022/11/26 12:27:39;;;;;;;;;;;;;;;;;;5090152;28;20360;-50
2022/11/26 12:30:05;;;;;;;;;;;;;;;;;;5091304;28;19965;-54
2022/11/26 12:32:31;;;;;;;;;;;;;;;;;;5092031;28;19909;-54
2022/11/26 12:34:57;;;;;;;;;;;;;;;;;;5092501;28;19978;-53
2022/11/26 12:37:23;;;;;;;;;;;;;;;;;;5092174;28;20165;-53
2022/11/26 12:39:49;;;;;;;;;;;;;;;;;;5092519;28;19912;-53
2022/11/26 12:42:15;;;;;;;;;;;;;;;;;;5091177;28;20060;-53
2022/11/26 12:45:02;;;;;;;;;;;;;;;;;;5091670;28;19977;-53
2022/11/26 12:47:31;;;;;;;;;;;;;;;;;;5092214;28;19920;-53
2022/11/26 12:50:10;;;;;;;;;;;13.60;77.70;;;;;;5092636;28;19976;-53
2022/11/26 12:52:39;;;;;;;;;;;;;;;;;;5078016;28;19912;-53
2022/11/26 12:55:08;;;;;;;;;;;;;;;;;;5092484;28;20353;-53
2022/11/26 12:57:40;;;;;;;;;;;;;;;;;;5073331;28;20296;-54
2022/11/26 13:00:06;;;;;;;;;;;;;;;;;;5091823;28;20395;-55
2022/11/26 13:05:17;;;;;;;;;;;;;;;;;;5091439;28;19931;-50
2022/11/26 13:07:43;;;;;;;;;;;;;;;;;;5073933;28;19912;-55
2022/11/26 13:10:10;;;;;;;;;;;;;;;;;;5091684;28;20268;-54
2022/11/26 13:12:36;;;;;;;;;;;;;;;;;;5091777;28;19912;-52
2022/11/26 13:15:22;;;;;;;;;;;12.30;89.60;;;;;;5092167;28;19915;-53
2022/11/26 13:17:48;;;;;;;;;;;14.40;78.50;;;;;;5088854;28;19919;-50
2022/11/26 13:20:23;;;;;;;;;;;13.90;81.60;;;;;;5092330;28;20004;-53
2022/11/26 13:22:52;;;;;;;;;;;;;;;;;;5092461;28;20012;-52
2022/11/26 13:25:18;;;;;;;;;;;;;;;;;;5091387;28;19923;-51
2022/11/26 13:27:44;;;;;;;;;;;;;;;;;;5091720;28;19919;-55
2022/11/26 13:30:10;;;;;;;;;;;;;;;;;;5091815;28;19997;-53
2022/11/26 13:32:36;;;;;;;;;;;;;;;;;;5092461;28;19931;-56
2022/11/26 13:35:02;;;;;;;;;;;;;;;;;;5091827;28;19955;-55
2022/11/26 13:37:28;;;;;;;;;;;;;;;;;;5091893;28;19919;-53
2022/11/26 13:39:54;;;;;;;;;;;;;;;;;;5091863;28;20295;-54
2022/11/26 13:42:38;;;;;;;;;;;13.50;82.70;;;;;;5091763;28;19973;-53
2022/11/26 13:45:23;;;;;;;;;;;14.90;78.90;;;;;;5085528;28;19916;-53
2022/11/26 13:48:02;;;;;;;;;;;14.80;76.20;;;;;;5084168;28;20006;-56
2022/11/26 13:50:31;;;;;;;;;;;14.50;79.30;;;;;;5091527;28;19914;-54
2022/11/26 13:53:07;;;;;;;;;;;14.00;81.00;;;;;;5092127;28;19999;-54
2022/11/26 13:55:37;;;;;;;;;;;14.00;81.20;;;;;;5092043;28;19912;-54
2022/11/26 13:58:05;;;;;;;;;;;13.70;82.10;;;;;;5091902;28;19915;-53
2022/11/26 14:00:31;;;;;;;;;;;13.60;83.10;;;;;;5072502;28;20200;-54
2022/11/26 14:02:58;;;;;;;;;;;13.40;84.70;;;;;;5091678;28;19912;-54
2022/11/26 14:05:47;;;;;;;;;;;13.40;85.00;;;;;;5091621;28;19916;-53
2022/11/26 14:08:35;;;;;;;;;;;13.30;85.10;;;;;;5089299;28;19918;-52
2022/11/26 14:16:49;;;;;;;;;;;;;;;;;;5089911;28;19919;-50
2022/11/26 14:19:15;;;;;;;;;;;;;;;;;;5094921;28;19955;-51
2022/11/26 14:21:44;;;;;;;;;;;;;;;;;;5086987;28;19915;-52
2022/11/26 14:24:10;;;;;;;;;;;;;;;;;;5075302;28;19912;-50
2022/11/26 14:26:38;;;;;;;;;;;;;;;;;;5076376;28;19999;-51
2022/11/26 14:29:19;;;;;;;;;;;12.80;88.00;;;;;;5095120;28;19913;-51
2022/11/26 14:31:49;;;;;;;;;;;12.60;88.80;;;;;;5090485;28;19913;-50
2022/11/26 14:34:15;;;;;;;;;;;;;;;;;;5092105;28;19913;-52
2022/11/26 14:36:44;;;;;;;;;;;;;;;;;;5095566;28;20006;-52
2022/11/26 14:39:13;;;;;;;;;;;;;;;;;;5086116;28;19908;-51
2022/11/26 14:41:39;;;;;;;;;;;;;;;;;;5075426;28;19930;-51
2022/11/26 14:44:06;;;;;;;;;;;;;;;;;;5087725;28;19969;-56
2022/11/26 14:46:32;;;;;;;;;;;;;;;;;;5094687;28;19912;-54
2022/11/26 14:48:58;;;;;;;;;;;;;;;;;;5094269;28;19981;-51
2022/11/26 14:51:24;;;;;;;;;;;;;;;;;;5092245;28;19918;-54
2022/11/26 14:53:50;;;;;;;;;;;;;;;;;;5093997;28;19965;-56
2022/11/26 14:56:16;;;;;;;;;;;;;;;;;;5093692;28;20269;-53
2022/11/26 14:58:42;;;;;;;;;;;;;;;;;;5091397;28;19912;-54
2022/11/26 15:01:08;;;;;;;;;;;;;;;;;;5094700;28;19918;-53
2022/11/26 15:03:35;;;;;;;;;;;;;;;;;;5093636;28;19920;-53
2022/11/26 15:06:04;;;;;;;;;;;;;;;;;;5094464;28;19961;-54
2022/11/26 15:08:30;;;;;;;;;;;;;;;;;;5074245;28;19912;-54
2022/11/26 15:10:56;;;;;;;;;;;;;;;;;;5092183;28;20273;-53
2022/11/26 15:13:22;;;;;;;;;;;;;;;;;;5092520;28;19916;-55
2022/11/26 15:15:48;;;;;;;;;;;;;;;;;;5082701;28;19932;-53
2022/11/26 15:18:14;;;;;;;;;;;;;;;;;;5093362;28;19981;-52
2022/11/26 15:20:43;;;;;;;;;;;;;;;;;;5076024;28;20008;-53
2022/11/26 15:23:10;;;;;;;;;;;;;;;;;;5079478;28;19912;-54
2022/11/26 15:28:24;;;;;;;;;;;;;;;;;;5092519;28;19919;-53
2022/11/26 15:30:50;;;;;;;;;;;;;;;;;;5093277;28;19912;-54
2022/11/26 15:33:16;;;;;;;;;;;;;;;;;;5087862;28;19912;-52
2022/11/26 15:35:43;;;;;;;;;;;;;;;;;;5094269;28;19914;-52
2022/11/26 15:38:09;;;;;;;;;;;;;;;;;;5085593;28;19917;-56
2022/11/26 15:40:35;;;;;;;;;;;;;;;;;;5074039;28;19962;-53
2022/11/26 15:43:01;;;;;;;;;;;;;;;;;;5073077;28;19909;-52
2022/11/26 15:45:27;;;;;;;;;;;;;;;;;;5086031;28;19924;-52
2022/11/26 15:47:55;;;;;;;;;;;;;;;;;;5093433;28;19962;-53
2022/11/26 15:50:24;;;;;;;;;;;;;;;;;;5082993;28;20273;-53
2022/11/26 15:52:53;;;;;;;;;;;;;;;;;;5092565;28;19912;-52
2022/11/26 15:55:19;;;;;;;;;;;;;;;;;;5093482;28;20360;-54
2022/11/26 15:57:47;;;;;;;;;;;;;;;;;;5090281;28;19919;-53
2022/11/26 16:05:43;;;;;;;;;;;;;;;;;;5091645;28;19923;-53
2022/11/26 16:08:18;;;;;;;;;;;;;;;;;;5092894;28;19912;-53
2022/11/26 16:10:48;;;;;;;;;;;;;;;;;;5074426;28;20336;-52
2022/11/26 16:13:14;;;;;;;;;;;;;;;;;;5081360;28;20356;-53
2022/11/26 16:15:40;;;;;;;;;;;;;;;;;;5092347;28;19999;-52
2022/11/26 16:18:06;;;;;;;;;;;;;;;;;;5094021;28;19947;-55
2022/11/26 16:20:32;;;;;;;;;;;;;;;;;;5093231;28;19951;-52
2022/11/26 16:23:04;;;;;;;;;;;;;;;;;;5075264;28;20336;-55
2022/11/26 16:25:31;;;;;;;;;;;;;;;;;;5093349;28;19912;-53
2022/11/26 16:27:58;;;;;;;;;;;;;;;;;;5093397;28;19954;-52
2022/11/26 16:30:24;;;;;;;;;;;;;;;;;;5092416;28;19908;-53
2022/11/26 16:32:50;;;;;;;;;;;;;;;;;;5072054;28;20000;-53
2022/11/26 16:35:24;;;;;;;;;;;;;;;;;;5072867;28;19931;-52
2022/11/26 16:37:51;;;;;;;;;;;;;;;;;;5076346;28;19916;-53
2022/11/26 16:40:23;;;;;;;;;;;;;;;;;;5092814;28;19923;-52
2022/11/26 16:42:49;;;;;;;;;;;;;;;;;;5092287;28;19955;-52
2022/11/26 16:45:15;;;;;;;;;;;;;;;;;;5091988;28;19963;-53
2022/11/26 16:47:41;;;;;;;;;;;;;;;;;;5092733;28;19908;-53
2022/11/26 16:50:07;;;;;;;;;;;;;;;;;;5074535;28;19916;-52
2022/11/26 16:52:37;;;;;;;;;;;;;;;;;;5092953;28;19933;-52
2022/11/26 16:55:06;;;;;;;;;;;;;;;;;;5092843;28;19915;-53
2022/11/26 16:57:32;;;;;;;;;;;;;;;;;;5092833;28;19908;-52
2022/11/26 16:59:58;;;;;;;;;;;;;;;;;;5092623;28;19908;-54
2022/11/26 17:02:24;;;;;;;;;;;;;;;;;;5091892;28;19915;-53
2022/11/26 17:04:51;;;;;;;;;;;;;;;;;;5089141;28;19951;-56
2022/11/26 17:07:17;;;;;;;;;;;;;;;;;;5091989;28;19916;-52
2022/11/26 17:09:43;;;;;;;;;;;;;;;;;;5091907;28;19912;-53